createdAt,value
2022-12-24T00:00:28.013Z,96937.53
2022-12-24T00:02:59.781Z,96946.50
2022-12-24T00:05:31.474Z,96942.38
2022-12-24T00:08:03.087Z,96927.53
2022-12-24T00:10:34.648Z,96930.00
2022-12-24T00:13:06.263Z,96926.94
2022-12-24T00:15:37.854Z,96923.44
2022-12-24T00:18:09.439Z,96944.00
2022-12-24T00:20:41.230Z,96930.66
2022-12-24T00:23:12.905Z,96954.63
2022-12-24T00:25:44.962Z,96949.13
2022-12-24T00:28:22.661Z,96947.75
2022-12-24T00:30:54.441Z,96939.94
2022-12-24T00:33:26.052Z,96937.25
2022-12-24T00:35:57.573Z,96944.69
2022-12-24T00:38:29.151Z,96941.91
2022-12-24T00:41:06.363Z,96929.00
2022-12-24T00:43:38.027Z,96935.84
2022-12-24T00:46:09.685Z,96931.31
2022-12-24T00:48:41.304Z,96926.72
2022-12-24T00:51:13.057Z,96949.44
2022-12-24T00:53:44.731Z,96933.19
2022-12-24T00:56:16.979Z,96936.34
2022-12-24T00:58:48.693Z,96939.63
2022-12-24T01:01:21.179Z,96952.63
2022-12-24T01:03:53.360Z,96951.53
2022-12-24T01:06:24.964Z,96959.66
2022-12-24T01:08:56.706Z,96968.16
2022-12-24T01:11:28.280Z,96971.13
2022-12-24T01:13:59.906Z,96966.38
2022-12-24T01:16:31.699Z,96977.34
2022-12-24T01:19:04.144Z,96973.72
2022-12-24T01:21:35.677Z,96974.28
2022-12-24T01:24:07.347Z,96989.91
2022-12-24T01:26:38.954Z,96988.84
2022-12-24T01:29:10.541Z,96991.72
2022-12-24T01:31:42.140Z,96997.88
2022-12-24T01:34:13.751Z,97001.94
2022-12-24T01:36:45.343Z,97006.28
2022-12-24T01:39:17.302Z,97016.53
2022-12-24T01:41:49.040Z,97022.38
2022-12-24T01:44:20.557Z,97015.91
2022-12-24T01:47:03.727Z,96999.91
2022-12-24T01:49:39.364Z,96995.50
2022-12-24T01:52:19.417Z,97010.38
2022-12-24T01:54:58.705Z,97010.88
2022-12-24T01:57:46.173Z,97039.53
2022-12-24T02:00:18.308Z,97027.91
2022-12-24T02:02:53.420Z,97031.59
2022-12-24T02:05:32.267Z,97028.00
2022-12-24T02:08:05.774Z,97037.34
2022-12-24T02:10:37.640Z,97034.66
2022-12-24T02:13:10.147Z,97021.72
2022-12-24T02:15:54.688Z,97025.84
2022-12-24T02:18:38.685Z,97022.31
2022-12-24T02:21:19.410Z,97030.22
2022-12-24T02:24:05.990Z,97030.31
2022-12-24T02:27:17.353Z,97038.06
2022-12-24T02:29:48.847Z,97036.72
2022-12-24T02:32:47.533Z,97041.66
2022-12-24T02:35:25.572Z,97049.44
2022-12-24T02:38:17.805Z,97050.56
2022-12-24T02:41:02.881Z,97039.44
2022-12-24T02:43:40.475Z,97037.94
2022-12-24T02:46:18.892Z,97022.28
2022-12-24T02:48:51.143Z,97016.31
2022-12-24T02:51:24.825Z,97019.69
2022-12-24T02:53:57.335Z,97020.06
2022-12-24T02:57:10.211Z,97044.03
2022-12-24T03:00:08.512Z,97040.94
2022-12-24T03:03:01.839Z,97036.25
2022-12-24T03:05:54.778Z,97024.03
2022-12-24T03:08:54.884Z,97015.72
2022-12-24T03:11:26.724Z,97013.31
2022-12-24T03:14:00.073Z,97020.44
2022-12-24T03:16:32.190Z,97016.66
2022-12-24T03:19:04.114Z,97014.94
2022-12-24T03:21:40.079Z,97023.63
2022-12-24T03:24:12.260Z,97008.72
2022-12-24T03:26:46.195Z,97008.00
2022-12-24T03:29:18.175Z,97005.63
2022-12-24T03:31:53.217Z,97000.66
2022-12-24T03:34:24.959Z,96996.09
2022-12-24T03:36:56.856Z,97000.31
2022-12-24T03:39:28.487Z,97004.44
2022-12-24T03:42:00.126Z,97002.78
2022-12-24T03:44:31.648Z,97005.72
2022-12-24T03:47:03.238Z,97016.50
2022-12-24T03:49:34.847Z,97015.22
2022-12-24T03:52:06.438Z,97024.66
2022-12-24T03:54:38.104Z,97017.09
2022-12-24T03:57:09.805Z,97020.22
2022-12-24T03:59:41.410Z,97027.22
2022-12-24T04:02:13.089Z,97018.03
2022-12-24T04:04:44.794Z,97018.16
2022-12-24T04:07:16.339Z,97012.53
2022-12-24T04:09:47.951Z,97010.34
2022-12-24T04:12:19.566Z,97017.81
2022-12-24T04:14:51.342Z,97028.22
2022-12-24T04:17:23.171Z,97034.72
2022-12-24T04:19:54.794Z,97026.03
2022-12-24T04:22:26.564Z,97017.50
2022-12-24T04:24:58.136Z,97027.03
2022-12-24T04:27:30.719Z,97025.53
2022-12-24T04:30:02.806Z,97029.31
2022-12-24T04:32:34.341Z,97029.47
2022-12-24T04:35:06.247Z,97032.53
2022-12-24T04:37:37.831Z,97019.69
2022-12-24T04:40:09.797Z,97015.50
2022-12-24T04:42:41.387Z,97008.75
2022-12-24T04:45:13.057Z,97003.38
2022-12-24T04:47:44.887Z,97008.28
2022-12-24T04:50:16.526Z,97019.69
2022-12-24T04:52:48.083Z,97012.91
2022-12-24T04:55:19.688Z,97008.59
2022-12-24T04:57:53.052Z,97015.16
2022-12-24T05:00:24.966Z,97018.13
2022-12-24T05:02:56.784Z,97022.88
2022-12-24T05:05:28.398Z,97014.13
2022-12-24T05:08:00.005Z,97026.28
2022-12-24T05:10:31.802Z,97012.47
2022-12-24T05:13:03.591Z,97002.13
2022-12-24T05:15:35.221Z,97002.78
2022-12-24T05:18:06.819Z,97022.88
2022-12-24T05:20:38.378Z,97025.13
2022-12-24T05:23:16.989Z,97022.47
2022-12-24T05:25:48.641Z,97007.84
2022-12-24T05:28:20.806Z,97007.84
2022-12-24T05:30:52.468Z,97012.38
2022-12-24T05:33:24.035Z,97024.84
2022-12-24T05:35:55.609Z,97030.09
2022-12-24T05:38:27.184Z,97039.44
2022-12-24T05:40:58.771Z,97035.88
2022-12-24T05:43:30.555Z,97041.44
2022-12-24T05:46:07.955Z,97026.09
2022-12-24T05:48:39.774Z,97023.38
2022-12-24T05:51:13.712Z,97034.69
2022-12-24T05:53:46.544Z,97032.44
2022-12-24T05:56:21.112Z,97049.03
2022-12-24T05:58:53.991Z,97048.13
2022-12-24T06:01:26.120Z,97049.75
2022-12-24T06:03:57.940Z,97051.09
2022-12-24T06:06:29.622Z,97052.28
2022-12-24T06:09:01.279Z,97044.56
2022-12-24T06:11:33.509Z,97040.34
2022-12-24T06:14:05.094Z,97032.22
2022-12-24T06:16:36.765Z,97039.66
2022-12-24T06:19:08.294Z,97059.13
2022-12-24T06:21:39.865Z,97052.28
2022-12-24T06:24:11.466Z,97050.75
2022-12-24T06:26:43.009Z,97053.78
2022-12-24T06:29:14.584Z,97057.41
2022-12-24T06:31:46.190Z,97053.56
2022-12-24T06:34:17.807Z,97057.38
2022-12-24T06:36:49.489Z,97063.44
2022-12-24T06:39:21.074Z,97078.84
2022-12-24T06:41:52.669Z,97079.88
2022-12-24T06:44:24.420Z,97070.34
2022-12-24T06:46:56.094Z,97067.84
2022-12-24T06:49:27.768Z,97050.00
2022-12-24T06:51:59.311Z,97047.06
2022-12-24T06:54:30.899Z,97037.00
2022-12-24T06:57:02.490Z,97027.66
2022-12-24T06:59:34.079Z,97032.91
2022-12-24T07:02:05.757Z,97037.38
2022-12-24T07:04:37.458Z,97054.94
2022-12-24T07:07:09.082Z,97062.66
2022-12-24T07:09:40.624Z,97070.13
2022-12-24T07:12:12.169Z,97076.06
2022-12-24T07:14:43.746Z,97064.22
2022-12-24T07:17:15.440Z,97061.56
2022-12-24T07:19:47.254Z,97066.06
2022-12-24T07:22:18.893Z,97069.94
2022-12-24T07:24:50.445Z,97071.97
2022-12-24T07:27:22.081Z,97070.50
2022-12-24T07:29:53.713Z,97066.47
2022-12-24T07:32:25.371Z,97066.19
2022-12-24T07:34:56.941Z,97063.75
2022-12-24T07:37:28.793Z,97053.53
2022-12-24T07:40:00.409Z,97051.19
2022-12-24T07:42:32.052Z,97057.72
2022-12-24T07:45:03.859Z,97064.50
2022-12-24T07:47:35.585Z,97069.22
2022-12-24T07:50:07.689Z,97070.56
2022-12-24T07:52:39.316Z,97056.38
2022-12-24T07:55:10.875Z,97066.75
2022-12-24T07:57:42.834Z,97060.81
2022-12-24T08:00:14.696Z,97055.09
2022-12-24T08:02:46.347Z,97065.69
2022-12-24T08:05:17.984Z,97072.28
2022-12-24T08:07:49.583Z,97073.81
2022-12-24T08:10:21.354Z,97080.09
2022-12-24T08:12:52.959Z,97087.84
2022-12-24T08:15:24.578Z,97078.84
2022-12-24T08:17:56.611Z,97091.06
2022-12-24T08:20:28.345Z,97092.31
2022-12-24T08:22:59.914Z,97082.97
2022-12-24T08:25:31.503Z,97080.63
2022-12-24T08:28:04.066Z,97082.19
2022-12-24T08:30:36.123Z,97095.63
2022-12-24T08:33:07.843Z,97103.03
2022-12-24T08:35:39.642Z,97107.84
2022-12-24T08:38:11.214Z,97102.84
2022-12-24T08:40:44.136Z,97102.91
2022-12-24T08:43:17.383Z,97099.97
2022-12-24T08:45:49.147Z,97102.69
2022-12-24T08:48:20.840Z,97096.84
2022-12-24T08:50:52.443Z,97102.34
2022-12-24T08:53:24.131Z,97105.00
2022-12-24T08:56:02.037Z,97106.00
2022-12-24T08:58:33.873Z,97104.72
2022-12-24T09:01:17.421Z,97099.19
2022-12-24T09:03:49.181Z,97096.41
2022-12-24T09:06:20.835Z,97091.34
2022-12-24T09:08:52.452Z,97089.31
2022-12-24T09:11:24.376Z,97089.69
2022-12-24T09:13:56.048Z,97079.38
2022-12-24T09:16:28.041Z,97088.88
2022-12-24T09:18:59.678Z,97091.75
2022-12-24T09:21:31.286Z,97093.59
2022-12-24T09:24:04.444Z,97108.38
2022-12-24T09:26:35.985Z,97116.44
2022-12-24T09:29:08.063Z,97116.25
2022-12-24T09:31:39.644Z,97098.47
2022-12-24T09:34:11.291Z,97098.91
2022-12-24T09:36:42.870Z,97107.50
2022-12-24T09:39:14.980Z,97096.56
2022-12-24T09:42:20.688Z,97101.63
2022-12-24T09:45:07.636Z,97101.31
2022-12-24T09:47:41.995Z,97106.97
2022-12-24T09:50:31.785Z,97110.66
2022-12-24T09:53:17.627Z,97113.88
2022-12-24T09:55:55.530Z,97109.25
2022-12-24T09:58:37.343Z,97095.81
2022-12-24T10:01:14.153Z,97096.50
2022-12-24T10:03:47.442Z,97096.56
2022-12-24T10:06:29.020Z,97110.06
2022-12-24T10:09:23.036Z,97118.16
2022-12-24T10:12:00.492Z,97110.09
2022-12-24T10:15:16.395Z,97115.09
2022-12-24T10:18:06.408Z,97111.81
2022-12-24T10:20:56.277Z,97099.97
2022-12-24T10:23:38.396Z,97101.34
2022-12-24T10:26:26.427Z,97096.94
2022-12-24T10:29:06.245Z,97097.44
2022-12-24T10:31:52.908Z,97101.56
2022-12-24T10:34:31.461Z,97089.56
2022-12-24T10:37:03.182Z,97094.97
2022-12-24T10:39:34.803Z,97086.88
2022-12-24T10:42:07.679Z,97090.38
2022-12-24T10:44:39.311Z,97098.44
2022-12-24T10:47:13.411Z,97104.16
2022-12-24T10:50:00.273Z,97102.06
2022-12-24T10:52:41.684Z,97105.50
2022-12-24T10:55:16.209Z,97100.00
2022-12-24T10:58:02.217Z,97093.53
2022-12-24T11:00:36.834Z,97084.31
2022-12-24T11:03:32.561Z,97083.47
2022-12-24T11:06:07.818Z,97075.75
2022-12-24T11:08:44.860Z,97086.72
2022-12-24T11:11:20.658Z,97073.06
2022-12-24T11:13:55.237Z,97066.78
2022-12-24T11:16:33.939Z,97069.88
2022-12-24T11:19:16.981Z,97072.25
2022-12-24T11:21:48.815Z,97074.75
2022-12-24T11:24:30.777Z,97079.47
2022-12-24T11:27:32.524Z,97062.34
2022-12-24T11:30:13.356Z,97074.19
2022-12-24T11:32:48.464Z,97068.09
2022-12-24T11:35:24.587Z,97066.81
2022-12-24T11:38:02.093Z,97070.03
2022-12-24T11:40:37.633Z,97066.28
2022-12-24T11:43:21.819Z,97067.00
2022-12-24T11:45:57.781Z,97062.78
2022-12-24T11:48:32.823Z,97066.22
2022-12-24T11:51:07.487Z,97061.94
2022-12-24T11:53:53.672Z,97067.50
2022-12-24T11:56:38.876Z,97066.34
2022-12-24T11:59:25.191Z,97058.72
2022-12-24T12:02:21.567Z,97063.47
2022-12-24T12:05:00.235Z,97055.69
2022-12-24T12:07:37.016Z,97058.06
2022-12-24T12:10:20.684Z,97051.13
2022-12-24T12:13:03.785Z,97049.09
2022-12-24T12:15:53.888Z,97046.47
2022-12-24T12:18:35.254Z,97042.09
2022-12-24T12:21:16.940Z,97032.00
2022-12-24T12:24:12.487Z,97021.38
2022-12-24T12:26:47.253Z,97033.84
2022-12-24T12:29:32.036Z,97037.19
2022-12-24T12:32:25.366Z,97035.66
2022-12-24T12:35:02.778Z,97034.56
2022-12-24T12:37:41.448Z,97045.66
2022-12-24T12:40:16.716Z,97049.50
2022-12-24T12:43:10.800Z,97052.25
2022-12-24T12:46:02.840Z,97049.09
2022-12-24T12:48:49.573Z,97049.97
2022-12-24T12:51:28.929Z,97046.81
2022-12-24T12:54:30.200Z,97047.22
2022-12-24T12:57:13.077Z,97042.47
2022-12-24T12:59:57.964Z,97033.47
2022-12-24T13:03:00.242Z,97048.94
2022-12-24T13:05:56.221Z,97045.94
2022-12-24T13:08:59.349Z,97039.66
2022-12-24T13:11:30.881Z,97037.44
2022-12-24T13:14:32.545Z,97038.16
2022-12-24T13:17:46.112Z,97035.88
2022-12-24T13:20:31.139Z,97036.72
2022-12-24T13:23:13.733Z,97029.78
2022-12-24T13:25:49.378Z,97031.50
2022-12-24T13:28:23.717Z,97034.22
2022-12-24T13:31:01.142Z,97034.69
2022-12-24T13:33:38.755Z,97022.56
2022-12-24T13:36:15.775Z,97025.75
2022-12-24T13:38:55.339Z,97029.53
2022-12-24T13:41:38.712Z,97025.66
2022-12-24T13:44:13.693Z,97031.63
2022-12-24T13:47:00.199Z,97032.38
2022-12-24T13:49:43.461Z,97034.91
2022-12-24T13:52:30.458Z,97034.59
2022-12-24T13:55:14.867Z,97031.09
2022-12-24T13:57:55.735Z,97031.25
2022-12-24T14:00:33.055Z,97029.22
2022-12-24T14:03:19.310Z,97034.91
2022-12-24T14:05:56.626Z,97028.25
2022-12-24T14:08:34.677Z,97032.06
2022-12-24T14:11:15.083Z,97031.72
2022-12-24T14:13:46.571Z,97035.81
2022-12-24T14:16:25.855Z,97040.16
2022-12-24T14:19:14.922Z,97037.91
2022-12-24T14:22:03.883Z,97047.19
2022-12-24T14:24:41.808Z,97047.41
2022-12-24T14:27:28.307Z,97052.72
2022-12-24T14:30:06.748Z,97051.09
2022-12-24T14:32:40.950Z,97059.56
2022-12-24T14:35:20.385Z,97047.66
2022-12-24T14:38:00.048Z,97057.28
2022-12-24T14:40:38.662Z,97054.78
2022-12-24T14:43:27.488Z,97048.88
2022-12-24T14:46:24.598Z,97048.69
2022-12-24T14:49:32.388Z,97049.97
2022-12-24T14:53:03.488Z,97043.28
2022-12-24T14:55:39.712Z,97046.38
2022-12-24T14:58:27.724Z,97056.13
2022-12-24T15:01:02.917Z,97058.16
2022-12-24T15:03:34.613Z,97052.38
2022-12-24T15:06:10.829Z,97056.50
2022-12-24T15:08:49.554Z,97055.63
2022-12-24T15:11:23.460Z,97049.56
2022-12-24T15:14:00.404Z,97046.97
2022-12-24T15:16:35.560Z,97049.38
2022-12-24T15:19:35.108Z,97054.78
2022-12-24T15:22:23.778Z,97048.03
2022-12-24T15:24:55.473Z,97055.91
2022-12-24T15:27:33.379Z,97058.91
2022-12-24T15:30:18.673Z,97062.03
2022-12-24T15:32:53.647Z,97059.59
2022-12-24T15:35:54.662Z,97054.16
2022-12-24T15:38:37.597Z,97051.75
2022-12-24T15:41:30.361Z,97053.47
2022-12-24T15:44:03.445Z,97068.69
2022-12-24T15:46:35.148Z,97064.13
2022-12-24T15:49:17.321Z,97069.41
2022-12-24T15:51:49.019Z,97066.81
2022-12-24T15:54:22.755Z,97066.34
2022-12-24T15:56:54.409Z,97067.16
2022-12-24T15:59:30.203Z,97053.38
2022-12-24T16:02:20.880Z,97058.38
2022-12-24T16:04:52.692Z,97061.00
2022-12-24T16:07:25.483Z,97071.63
2022-12-24T16:09:57.066Z,97080.66
2022-12-24T16:12:29.975Z,97081.53
2022-12-24T16:15:02.173Z,97074.06
2022-12-24T16:17:36.148Z,97074.56
2022-12-24T16:20:20.665Z,97082.00
2022-12-24T16:22:52.437Z,97072.69
2022-12-24T16:25:27.077Z,97075.28
2022-12-24T16:28:00.797Z,97084.66
2022-12-24T16:30:32.999Z,97079.06
2022-12-24T16:33:04.615Z,97067.94
2022-12-24T16:35:36.185Z,97075.13
2022-12-24T16:38:09.011Z,97081.59
2022-12-24T16:40:41.476Z,97086.47
2022-12-24T16:43:13.502Z,97074.59
2022-12-24T16:45:47.125Z,97075.91
2022-12-24T16:48:24.469Z,97078.00
2022-12-24T16:50:56.186Z,97076.22
2022-12-24T16:53:28.439Z,97085.63
2022-12-24T16:56:00.024Z,97076.59
2022-12-24T16:58:31.702Z,97077.69
2022-12-24T17:01:08.113Z,97085.09
2022-12-24T17:03:40.339Z,97085.22
2022-12-24T17:06:12.041Z,97079.91
2022-12-24T17:08:43.657Z,97091.72
2022-12-24T17:11:15.243Z,97084.81
2022-12-24T17:13:46.823Z,97082.28
2022-12-24T17:16:18.579Z,97093.56
2022-12-24T17:18:50.346Z,97093.91
2022-12-24T17:21:22.060Z,97097.03
2022-12-24T17:23:53.712Z,97097.44
2022-12-24T17:26:25.743Z,97098.88
2022-12-24T17:28:57.454Z,97106.38
2022-12-24T17:31:29.948Z,97107.22
2022-12-24T17:34:01.644Z,97104.78
2022-12-24T17:36:33.246Z,97110.28
2022-12-24T17:39:04.815Z,97107.91
2022-12-24T17:41:37.594Z,97104.53
2022-12-24T17:44:13.253Z,97102.94
2022-12-24T17:46:44.901Z,97109.72
2022-12-24T17:49:16.515Z,97104.09
2022-12-24T17:51:48.305Z,97105.53
2022-12-24T17:54:19.926Z,97112.78
2022-12-24T17:56:51.521Z,97109.59
2022-12-24T17:59:23.220Z,97105.19
2022-12-24T18:01:54.952Z,97114.94
2022-12-24T18:04:26.682Z,97110.34
2022-12-24T18:07:02.522Z,97114.16
2022-12-24T18:09:34.665Z,97113.38
2022-12-24T18:12:06.685Z,97122.13
2022-12-24T18:14:38.313Z,97122.22
2022-12-24T18:17:09.866Z,97124.63
2022-12-24T18:19:41.460Z,97122.34
2022-12-24T18:22:13.057Z,97126.91
2022-12-24T18:24:44.633Z,97135.19
2022-12-24T18:27:16.246Z,97130.06
2022-12-24T18:29:47.869Z,97116.91
2022-12-24T18:32:19.462Z,97117.81
2022-12-24T18:34:51.687Z,97104.03
2022-12-24T18:37:23.594Z,97110.81
2022-12-24T18:39:55.289Z,97108.84
2022-12-24T18:42:27.341Z,97117.31
2022-12-24T18:44:58.915Z,97113.94
2022-12-24T18:47:30.639Z,97113.19
2022-12-24T18:50:02.221Z,97115.97
2022-12-24T18:52:33.844Z,97125.41
2022-12-24T18:55:05.811Z,97122.00
2022-12-24T18:57:37.362Z,97125.06
2022-12-24T19:00:09.479Z,97123.25
2022-12-24T19:02:41.180Z,97130.09
2022-12-24T19:05:12.867Z,97137.69
2022-12-24T19:07:45.655Z,97135.63
2022-12-24T19:10:17.282Z,97138.06
2022-12-24T19:12:48.939Z,97128.28
2022-12-24T19:15:20.563Z,97127.53
2022-12-24T19:17:55.923Z,97129.50
2022-12-24T19:20:27.514Z,97127.69
2022-12-24T19:22:59.104Z,97124.31
2022-12-24T19:25:30.729Z,97126.78
2022-12-24T19:28:04.108Z,97126.56
2022-12-24T19:30:37.516Z,97120.56
2022-12-24T19:33:10.275Z,97124.09
2022-12-24T19:35:41.913Z,97130.69
2022-12-24T19:38:13.624Z,97129.50
2022-12-24T19:40:45.193Z,97132.56
2022-12-24T19:43:16.749Z,97135.19
2022-12-24T19:45:48.329Z,97139.00
2022-12-24T19:48:20.090Z,97133.09
2022-12-24T19:50:51.658Z,97133.78
2022-12-24T19:53:23.193Z,97137.91
2022-12-24T19:55:54.861Z,97131.53
2022-12-24T19:58:27.179Z,97133.94
2022-12-24T20:01:15.168Z,97142.03
2022-12-24T20:03:50.057Z,97135.06
2022-12-24T20:06:24.893Z,97138.00
2022-12-24T20:09:05.233Z,97141.00
2022-12-24T20:11:37.192Z,97153.84
2022-12-24T20:14:11.486Z,97160.13
2022-12-24T20:16:43.227Z,97154.97
2022-12-24T20:19:14.847Z,97162.38
2022-12-24T20:21:46.416Z,97150.72
2022-12-24T20:24:18.116Z,97154.25
2022-12-24T20:26:49.751Z,97152.94
2022-12-24T20:29:21.325Z,97163.91
2022-12-24T20:31:52.915Z,97156.16
2022-12-24T20:34:24.591Z,97161.22
2022-12-24T20:36:57.013Z,97165.56
2022-12-24T20:39:28.609Z,97156.56
2022-12-24T20:42:00.199Z,97157.47
2022-12-24T20:44:31.747Z,97141.69
2022-12-24T20:47:03.477Z,97140.34
2022-12-24T20:49:35.067Z,97142.28
2022-12-24T20:52:06.773Z,97137.94
2022-12-24T20:54:38.355Z,97137.91
2022-12-24T20:57:11.803Z,97139.13
2022-12-24T20:59:43.394Z,97141.69
2022-12-24T21:02:15.205Z,97148.03
2022-12-24T21:04:46.938Z,97160.06
2022-12-24T21:07:18.574Z,97164.56
2022-12-24T21:09:50.240Z,97170.50
2022-12-24T21:12:21.860Z,97163.66
2022-12-24T21:14:53.429Z,97168.94
2022-12-24T21:17:25.156Z,97175.66
2022-12-24T21:19:56.812Z,97165.06
2022-12-24T21:22:28.460Z,97166.16
2022-12-24T21:25:00.024Z,97172.38
2022-12-24T21:27:31.771Z,97168.94
2022-12-24T21:30:08.805Z,97175.22
2022-12-24T21:32:40.609Z,97174.06
2022-12-24T21:35:12.220Z,97176.78
2022-12-24T21:37:43.827Z,97182.69
2022-12-24T21:40:15.559Z,97184.03
2022-12-24T21:42:47.130Z,97180.38
2022-12-24T21:45:18.777Z,97191.22
2022-12-24T21:47:50.333Z,97190.34
2022-12-24T21:50:22.624Z,97184.19
2022-12-24T21:52:56.190Z,97169.66
2022-12-24T21:55:27.773Z,97173.56
2022-12-24T21:57:59.355Z,97179.53
2022-12-24T22:00:30.990Z,97181.28
2022-12-24T22:03:02.740Z,97189.22
2022-12-24T22:05:35.055Z,97196.53
2022-12-24T22:08:06.696Z,97183.75
2022-12-24T22:10:39.636Z,97185.84
2022-12-24T22:13:11.323Z,97185.84
2022-12-24T22:15:52.037Z,97179.16
2022-12-24T22:18:25.942Z,97188.88
2022-12-24T22:20:57.577Z,97194.06
2022-12-24T22:23:29.175Z,97188.88
2022-12-24T22:26:00.760Z,97194.81
2022-12-24T22:28:32.339Z,97198.81
2022-12-24T22:31:03.942Z,97193.06
2022-12-24T22:33:35.560Z,97200.66
2022-12-24T22:36:07.470Z,97198.81
2022-12-24T22:38:42.849Z,97195.66
2022-12-24T22:41:14.586Z,97196.09
2022-12-24T22:43:46.226Z,97204.06
2022-12-24T22:46:18.721Z,97199.91
2022-12-24T22:48:50.450Z,97205.50
2022-12-24T22:51:22.214Z,97201.94
2022-12-24T22:53:53.796Z,97200.94
2022-12-24T22:56:25.433Z,97201.72
2022-12-24T22:58:57.312Z,97189.47
2022-12-24T23:01:40.944Z,97189.28
2022-12-24T23:04:14.189Z,97185.84
2022-12-24T23:06:45.768Z,97190.56
2022-12-24T23:09:18.789Z,97184.56
2022-12-24T23:11:50.370Z,97179.59
2022-12-24T23:14:22.308Z,97185.63
2022-12-24T23:16:53.996Z,97181.56
2022-12-24T23:19:25.624Z,97188.06
2022-12-24T23:21:57.528Z,97181.56
2022-12-24T23:24:29.841Z,97183.59
2022-12-24T23:27:01.673Z,97171.25
2022-12-24T23:29:33.592Z,97175.28
2022-12-24T23:32:05.235Z,97172.84
2022-12-24T23:34:36.851Z,97175.63
2022-12-24T23:37:08.461Z,97167.03
2022-12-24T23:39:40.054Z,97163.91
2022-12-24T23:42:11.652Z,97158.78
2022-12-24T23:44:43.242Z,97173.06
2022-12-24T23:47:15.050Z,97173.19
2022-12-24T23:49:46.660Z,97175.38
2022-12-24T23:52:18.285Z,97177.44
2022-12-24T23:54:49.890Z,97170.41
2022-12-24T23:57:21.544Z,97159.94
2022-12-24T23:59:53.176Z,97156.91
